sensor_id;sensor_type;location;lat;lon;timestamp;P1;durP1;ratioP1;P2;durP2;ratioP2
18610;SDS011;9435;52.122;5.502;2023-12-20T00:02:15;24.10;;;2.80;;
18610;SDS011;9435;52.122;5.502;2023-12-20T00:04:42;18.13;;;2.72;;
18610;SDS011;9435;52.122;5.502;2023-12-20T00:07:09;11.57;;;2.17;;
18610;SDS011;9435;52.122;5.502;2023-12-20T00:09:38;17.90;;;2.53;;
18610;SDS011;9435;52.122;5.502;2023-12-20T00:12:05;20.55;;;2.35;;
18610;SDS011;9435;52.122;5.502;2023-12-20T00:14:32;17.25;;;2.67;;
18610;SDS011;9435;52.122;5.502;2023-12-20T00:16:59;17.48;;;2.30;;
18610;SDS011;9435;52.122;5.502;2023-12-20T00:19:26;18.00;;;3.10;;
18610;SDS011;9435;52.122;5.502;2023-12-20T00:21:53;21.98;;;2.55;;
18610;SDS011;9435;52.122;5.502;2023-12-20T00:24:20;17.42;;;2.50;;
18610;SDS011;9435;52.122;5.502;2023-12-20T00:26:49;18.70;;;2.60;;
18610;SDS011;9435;52.122;5.502;2023-12-20T00:29:16;26.58;;;3.08;;
18610;SDS011;9435;52.122;5.502;2023-12-20T00:31:43;29.30;;;2.60;;
18610;SDS011;9435;52.122;5.502;2023-12-20T00:34:10;15.20;;;2.78;;
18610;SDS011;9435;52.122;5.502;2023-12-20T00:36:37;27.73;;;3.15;;
18610;SDS011;9435;52.122;5.502;2023-12-20T00:39:04;22.55;;;2.88;;
18610;SDS011;9435;52.122;5.502;2023-12-20T00:41:32;17.98;;;2.72;;
18610;SDS011;9435;52.122;5.502;2023-12-20T00:44:00;23.25;;;2.75;;
18610;SDS011;9435;52.122;5.502;2023-12-20T00:46:28;17.75;;;2.53;;
18610;SDS011;9435;52.122;5.502;2023-12-20T00:48:55;15.43;;;2.80;;
18610;SDS011;9435;52.122;5.502;2023-12-20T00:51:22;21.00;;;2.97;;
18610;SDS011;9435;52.122;5.502;2023-12-20T00:53:49;21.17;;;2.80;;
18610;SDS011;9435;52.122;5.502;2023-12-20T00:56:19;17.55;;;3.05;;
18610;SDS011;9435;52.122;5.502;2023-12-20T00:58:47;16.80;;;2.88;;
18610;SDS011;9435;52.122;5.502;2023-12-20T01:01:16;13.75;;;2.80;;
18610;SDS011;9435;52.122;5.502;2023-12-20T01:03:43;22.92;;;3.00;;
18610;SDS011;9435;52.122;5.502;2023-12-20T01:06:10;16.92;;;2.67;;
18610;SDS011;9435;52.122;5.502;2023-12-20T01:08:37;26.70;;;3.17;;
18610;SDS011;9435;52.122;5.502;2023-12-20T01:11:04;19.60;;;2.85;;
18610;SDS011;9435;52.122;5.502;2023-12-20T01:13:32;21.58;;;3.25;;
18610;SDS011;9435;52.122;5.502;2023-12-20T01:15:59;14.70;;;2.67;;
18610;SDS011;9435;52.122;5.502;2023-12-20T01:18:27;19.48;;;2.72;;
18610;SDS011;9435;52.122;5.502;2023-12-20T01:20:55;18.77;;;2.85;;
18610;SDS011;9435;52.122;5.502;2023-12-20T01:23:22;15.80;;;2.95;;
18610;SDS011;9435;52.122;5.502;2023-12-20T01:25:49;18.83;;;2.92;;
18610;SDS011;9435;52.122;5.502;2023-12-20T01:28:16;21.00;;;2.90;;
18610;SDS011;9435;52.122;5.502;2023-12-20T01:30:43;22.02;;;2.50;;
18610;SDS011;9435;52.122;5.502;2023-12-20T01:33:10;18.88;;;2.75;;
18610;SDS011;9435;52.122;5.502;2023-12-20T01:35:38;24.65;;;3.33;;
18610;SDS011;9435;52.122;5.502;2023-12-20T01:38:06;22.50;;;3.13;;
18610;SDS011;9435;52.122;5.502;2023-12-20T01:40:33;18.85;;;2.83;;
18610;SDS011;9435;52.122;5.502;2023-12-20T01:43:00;22.73;;;3.22;;
18610;SDS011;9435;52.122;5.502;2023-12-20T01:45:28;24.92;;;3.33;;
18610;SDS011;9435;52.122;5.502;2023-12-20T01:47:55;22.02;;;2.90;;
18610;SDS011;9435;52.122;5.502;2023-12-20T01:50:23;22.30;;;2.83;;
18610;SDS011;9435;52.122;5.502;2023-12-20T01:52:52;20.15;;;3.05;;
18610;SDS011;9435;52.122;5.502;2023-12-20T01:55:22;22.45;;;2.75;;
18610;SDS011;9435;52.122;5.502;2023-12-20T01:57:50;23.33;;;2.80;;
18610;SDS011;9435;52.122;5.502;2023-12-20T02:00:18;19.60;;;2.30;;
18610;SDS011;9435;52.122;5.502;2023-12-20T02:02:48;19.95;;;2.60;;
18610;SDS011;9435;52.122;5.502;2023-12-20T02:05:17;24.45;;;3.00;;
18610;SDS011;9435;52.122;5.502;2023-12-20T02:07:44;17.55;;;2.80;;
18610;SDS011;9435;52.122;5.502;2023-12-20T02:10:13;27.83;;;3.28;;
18610;SDS011;9435;52.122;5.502;2023-12-20T02:12:40;29.17;;;3.20;;
18610;SDS011;9435;52.122;5.502;2023-12-20T02:15:07;19.95;;;2.70;;
18610;SDS011;9435;52.122;5.502;2023-12-20T02:17:35;23.35;;;3.17;;
18610;SDS011;9435;52.122;5.502;2023-12-20T02:20:02;21.08;;;3.00;;
18610;SDS011;9435;52.122;5.502;2023-12-20T02:22:32;20.70;;;3.13;;
18610;SDS011;9435;52.122;5.502;2023-12-20T02:24:59;28.60;;;3.35;;
18610;SDS011;9435;52.122;5.502;2023-12-20T02:27:26;27.40;;;3.10;;
18610;SDS011;9435;52.122;5.502;2023-12-20T02:29:55;20.45;;;3.00;;
18610;SDS011;9435;52.122;5.502;2023-12-20T02:32:22;22.20;;;3.20;;
18610;SDS011;9435;52.122;5.502;2023-12-20T02:34:51;19.38;;;2.80;;
18610;SDS011;9435;52.122;5.502;2023-12-20T02:37:18;22.67;;;3.47;;
18610;SDS011;9435;52.122;5.502;2023-12-20T02:39:46;19.90;;;3.55;;
18610;SDS011;9435;52.122;5.502;2023-12-20T02:42:14;32.45;;;3.55;;
18610;SDS011;9435;52.122;5.502;2023-12-20T02:44:41;20.75;;;3.08;;
18610;SDS011;9435;52.122;5.502;2023-12-20T02:47:08;22.58;;;3.30;;
18610;SDS011;9435;52.122;5.502;2023-12-20T02:49:35;23.52;;;3.33;;
18610;SDS011;9435;52.122;5.502;2023-12-20T02:52:02;32.42;;;3.95;;
18610;SDS011;9435;52.122;5.502;2023-12-20T02:54:29;19.98;;;3.13;;
18610;SDS011;9435;52.122;5.502;2023-12-20T02:56:58;26.65;;;3.80;;
18610;SDS011;9435;52.122;5.502;2023-12-20T02:59:25;32.03;;;4.50;;
18610;SDS011;9435;52.122;5.502;2023-12-20T03:01:52;25.85;;;3.30;;
18610;SDS011;9435;52.122;5.502;2023-12-20T03:04:19;23.30;;;3.50;;
18610;SDS011;9435;52.122;5.502;2023-12-20T03:06:46;35.78;;;4.25;;
18610;SDS011;9435;52.122;5.502;2023-12-20T03:09:13;26.45;;;3.75;;
18610;SDS011;9435;52.122;5.502;2023-12-20T03:11:40;30.60;;;4.25;;
18610;SDS011;9435;52.122;5.502;2023-12-20T03:14:08;35.97;;;4.30;;
18610;SDS011;9435;52.122;5.502;2023-12-20T03:16:36;28.65;;;3.33;;
18610;SDS011;9435;52.122;5.502;2023-12-20T03:19:03;22.52;;;3.58;;
18610;SDS011;9435;52.122;5.502;2023-12-20T03:21:30;24.55;;;3.60;;
18610;SDS011;9435;52.122;5.502;2023-12-20T03:23:57;28.00;;;3.80;;
18610;SDS011;9435;52.122;5.502;2023-12-20T03:26:24;19.25;;;3.05;;
18610;SDS011;9435;52.122;5.502;2023-12-20T03:28:51;21.95;;;3.75;;
18610;SDS011;9435;52.122;5.502;2023-12-20T03:31:19;27.58;;;3.58;;
18610;SDS011;9435;52.122;5.502;2023-12-20T03:33:47;26.63;;;3.53;;
18610;SDS011;9435;52.122;5.502;2023-12-20T03:36:14;29.00;;;3.97;;
18610;SDS011;9435;52.122;5.502;2023-12-20T03:38:41;32.28;;;3.47;;
18610;SDS011;9435;52.122;5.502;2023-12-20T03:41:08;29.52;;;3.80;;
18610;SDS011;9435;52.122;5.502;2023-12-20T03:43:35;35.63;;;3.97;;
18610;SDS011;9435;52.122;5.502;2023-12-20T03:46:03;28.80;;;4.05;;
18610;SDS011;9435;52.122;5.502;2023-12-20T03:48:31;32.78;;;3.42;;
18610;SDS011;9435;52.122;5.502;2023-12-20T03:50:58;31.38;;;3.92;;
18610;SDS011;9435;52.122;5.502;2023-12-20T03:53:25;23.02;;;3.75;;
18610;SDS011;9435;52.122;5.502;2023-12-20T03:55:52;26.20;;;3.35;;
18610;SDS011;9435;52.122;5.502;2023-12-20T03:58:19;28.80;;;3.67;;
18610;SDS011;9435;52.122;5.502;2023-12-20T04:00:46;23.77;;;3.38;;
18610;SDS011;9435;52.122;5.502;2023-12-20T04:03:13;26.80;;;3.13;;
18610;SDS011;9435;52.122;5.502;2023-12-20T04:05:42;23.45;;;3.47;;
18610;SDS011;9435;52.122;5.502;2023-12-20T04:08:09;21.83;;;3.13;;
18610;SDS011;9435;52.122;5.502;2023-12-20T04:10:36;21.83;;;3.20;;
18610;SDS011;9435;52.122;5.502;2023-12-20T04:13:03;23.52;;;3.55;;
18610;SDS011;9435;52.122;5.502;2023-12-20T04:15:30;26.23;;;3.15;;
18610;SDS011;9435;52.122;5.502;2023-12-20T04:17:57;26.60;;;3.13;;
18610;SDS011;9435;52.122;5.502;2023-12-20T04:20:25;24.23;;;3.50;;
18610;SDS011;9435;52.122;5.502;2023-12-20T04:22:54;36.40;;;3.97;;
18610;SDS011;9435;52.122;5.502;2023-12-20T04:25:21;33.15;;;3.58;;
18610;SDS011;9435;52.122;5.502;2023-12-20T04:27:48;36.08;;;4.95;;
18610;SDS011;9435;52.122;5.502;2023-12-20T04:30:15;25.63;;;3.00;;
18610;SDS011;9435;52.122;5.502;2023-12-20T04:32:42;27.50;;;3.70;;
18610;SDS011;9435;52.122;5.502;2023-12-20T04:35:09;26.98;;;3.10;;
18610;SDS011;9435;52.122;5.502;2023-12-20T04:37:36;24.48;;;2.78;;
18610;SDS011;9435;52.122;5.502;2023-12-20T04:40:05;26.73;;;3.80;;
18610;SDS011;9435;52.122;5.502;2023-12-20T04:42:33;21.00;;;2.95;;
18610;SDS011;9435;52.122;5.502;2023-12-20T04:45:00;23.65;;;2.85;;
18610;SDS011;9435;52.122;5.502;2023-12-20T04:47:28;24.80;;;3.33;;
18610;SDS011;9435;52.122;5.502;2023-12-20T04:49:55;23.35;;;3.10;;
18610;SDS011;9435;52.122;5.502;2023-12-20T04:52:22;14.80;;;2.63;;
18610;SDS011;9435;52.122;5.502;2023-12-20T04:54:49;33.45;;;3.22;;
18610;SDS011;9435;52.122;5.502;2023-12-20T04:57:17;32.25;;;3.30;;
18610;SDS011;9435;52.122;5.502;2023-12-20T04:59:44;25.73;;;3.28;;
18610;SDS011;9435;52.122;5.502;2023-12-20T05:02:12;22.33;;;3.50;;
18610;SDS011;9435;52.122;5.502;2023-12-20T05:04:38;27.65;;;3.42;;
18610;SDS011;9435;52.122;5.502;2023-12-20T05:07:05;24.05;;;3.25;;
18610;SDS011;9435;52.122;5.502;2023-12-20T05:09:32;23.35;;;3.15;;
18610;SDS011;9435;52.122;5.502;2023-12-20T05:11:59;24.75;;;3.03;;
18610;SDS011;9435;52.122;5.502;2023-12-20T05:14:28;23.80;;;3.03;;
18610;SDS011;9435;52.122;5.502;2023-12-20T05:16:55;21.17;;;3.00;;
18610;SDS011;9435;52.122;5.502;2023-12-20T05:19:23;21.90;;;3.13;;
18610;SDS011;9435;52.122;5.502;2023-12-20T05:21:51;24.48;;;3.30;;
18610;SDS011;9435;52.122;5.502;2023-12-20T05:24:18;22.67;;;3.20;;
18610;SDS011;9435;52.122;5.502;2023-12-20T05:26:46;23.08;;;3.28;;
18610;SDS011;9435;52.122;5.502;2023-12-20T05:29:13;26.77;;;3.50;;
18610;SDS011;9435;52.122;5.502;2023-12-20T05:31:41;19.00;;;3.17;;
18610;SDS011;9435;52.122;5.502;2023-12-20T05:34:08;25.38;;;2.92;;
18610;SDS011;9435;52.122;5.502;2023-12-20T05:36:35;33.15;;;3.50;;
18610;SDS011;9435;52.122;5.502;2023-12-20T05:39:04;21.90;;;2.88;;
18610;SDS011;9435;52.122;5.502;2023-12-20T05:41:32;24.52;;;2.95;;
18610;SDS011;9435;52.122;5.502;2023-12-20T05:44:00;28.15;;;3.60;;
18610;SDS011;9435;52.122;5.502;2023-12-20T05:46:27;23.52;;;3.10;;
18610;SDS011;9435;52.122;5.502;2023-12-20T05:48:55;29.08;;;3.40;;
18610;SDS011;9435;52.122;5.502;2023-12-20T05:51:22;21.45;;;3.22;;
18610;SDS011;9435;52.122;5.502;2023-12-20T05:53:50;28.42;;;3.38;;
18610;SDS011;9435;52.122;5.502;2023-12-20T05:56:17;24.60;;;3.15;;
18610;SDS011;9435;52.122;5.502;2023-12-20T05:58:44;20.85;;;2.92;;
18610;SDS011;9435;52.122;5.502;2023-12-20T06:01:11;21.30;;;2.85;;
18610;SDS011;9435;52.122;5.502;2023-12-20T06:03:42;23.60;;;3.63;;
18610;SDS011;9435;52.122;5.502;2023-12-20T06:06:10;23.35;;;3.03;;
18610;SDS011;9435;52.122;5.502;2023-12-20T06:08:38;22.90;;;3.00;;
18610;SDS011;9435;52.122;5.502;2023-12-20T06:11:05;23.23;;;3.00;;
18610;SDS011;9435;52.122;5.502;2023-12-20T06:13:32;21.35;;;2.97;;
18610;SDS011;9435;52.122;5.502;2023-12-20T06:16:00;22.92;;;2.95;;
18610;SDS011;9435;52.122;5.502;2023-12-20T06:18:28;19.63;;;2.88;;
18610;SDS011;9435;52.122;5.502;2023-12-20T06:20:55;28.30;;;3.45;;
18610;SDS011;9435;52.122;5.502;2023-12-20T06:23:23;17.95;;;2.97;;
18610;SDS011;9435;52.122;5.502;2023-12-20T06:25:50;27.33;;;3.25;;
18610;SDS011;9435;52.122;5.502;2023-12-20T06:28:17;18.88;;;2.85;;
18610;SDS011;9435;52.122;5.502;2023-12-20T06:30:44;19.63;;;2.50;;
18610;SDS011;9435;52.122;5.502;2023-12-20T06:33:12;24.23;;;2.50;;
18610;SDS011;9435;52.122;5.502;2023-12-20T06:35:39;21.52;;;2.63;;
18610;SDS011;9435;52.122;5.502;2023-12-20T06:38:06;26.63;;;3.50;;
18610;SDS011;9435;52.122;5.502;2023-12-20T06:40:36;25.65;;;3.40;;
18610;SDS011;9435;52.122;5.502;2023-12-20T06:43:03;25.20;;;2.85;;
18610;SDS011;9435;52.122;5.502;2023-12-20T06:45:31;23.08;;;3.15;;
18610;SDS011;9435;52.122;5.502;2023-12-20T06:47:59;19.38;;;2.90;;
18610;SDS011;9435;52.122;5.502;2023-12-20T06:50:26;18.20;;;2.55;;
18610;SDS011;9435;52.122;5.502;2023-12-20T06:52:53;19.17;;;2.72;;
18610;SDS011;9435;52.122;5.502;2023-12-20T06:55:20;22.02;;;2.85;;
18610;SDS011;9435;52.122;5.502;2023-12-20T06:57:48;22.80;;;2.92;;
18610;SDS011;9435;52.122;5.502;2023-12-20T07:00:16;22.23;;;2.92;;
18610;SDS011;9435;52.122;5.502;2023-12-20T07:02:45;23.10;;;2.88;;
18610;SDS011;9435;52.122;5.502;2023-12-20T07:05:12;27.73;;;2.90;;
18610;SDS011;9435;52.122;5.502;2023-12-20T07:07:44;22.73;;;3.10;;
18610;SDS011;9435;52.122;5.502;2023-12-20T07:10:12;24.55;;;3.22;;
18610;SDS011;9435;52.122;5.502;2023-12-20T07:12:39;16.77;;;2.78;;
18610;SDS011;9435;52.122;5.502;2023-12-20T07:15:09;23.85;;;3.20;;
18610;SDS011;9435;52.122;5.502;2023-12-20T07:17:38;22.15;;;3.03;;
18610;SDS011;9435;52.122;5.502;2023-12-20T07:20:06;23.40;;;3.05;;
18610;SDS011;9435;52.122;5.502;2023-12-20T07:22:36;22.00;;;2.90;;
18610;SDS011;9435;52.122;5.502;2023-12-20T07:25:03;18.98;;;3.00;;
18610;SDS011;9435;52.122;5.502;2023-12-20T07:27:30;20.80;;;2.58;;
18610;SDS011;9435;52.122;5.502;2023-12-20T07:29:58;23.20;;;3.45;;
18610;SDS011;9435;52.122;5.502;2023-12-20T07:32:26;19.55;;;3.58;;
18610;SDS011;9435;52.122;5.502;2023-12-20T07:34:53;23.10;;;3.20;;
18610;SDS011;9435;52.122;5.502;2023-12-20T07:37:20;22.08;;;2.55;;
18610;SDS011;9435;52.122;5.502;2023-12-20T07:39:47;24.05;;;3.42;;
18610;SDS011;9435;52.122;5.502;2023-12-20T07:42:14;21.77;;;3.15;;
18610;SDS011;9435;52.122;5.502;2023-12-20T07:44:41;23.45;;;3.22;;
18610;SDS011;9435;52.122;5.502;2023-12-20T07:47:08;19.55;;;2.97;;
18610;SDS011;9435;52.122;5.502;2023-12-20T07:49:38;21.05;;;3.13;;
18610;SDS011;9435;52.122;5.502;2023-12-20T07:52:05;23.40;;;3.53;;
18610;SDS011;9435;52.122;5.502;2023-12-20T07:54:33;22.33;;;2.85;;
18610;SDS011;9435;52.122;5.502;2023-12-20T07:57:00;28.02;;;3.38;;
18610;SDS011;9435;52.122;5.502;2023-12-20T07:59:27;29.38;;;3.13;;
18610;SDS011;9435;52.122;5.502;2023-12-20T08:01:54;19.30;;;2.80;;
18610;SDS011;9435;52.122;5.502;2023-12-20T08:04:22;34.63;;;3.40;;
18610;SDS011;9435;52.122;5.502;2023-12-20T08:06:50;22.08;;;2.78;;
18610;SDS011;9435;52.122;5.502;2023-12-20T08:09:17;19.40;;;3.22;;
18610;SDS011;9435;52.122;5.502;2023-12-20T08:11:44;21.35;;;3.38;;
18610;SDS011;9435;52.122;5.502;2023-12-20T08:14:12;23.60;;;3.35;;
18610;SDS011;9435;52.122;5.502;2023-12-20T08:16:39;24.35;;;2.80;;
18610;SDS011;9435;52.122;5.502;2023-12-20T08:19:06;22.58;;;3.08;;
18610;SDS011;9435;52.122;5.502;2023-12-20T08:21:33;28.42;;;3.15;;
18610;SDS011;9435;52.122;5.502;2023-12-20T08:24:02;29.20;;;3.80;;
18610;SDS011;9435;52.122;5.502;2023-12-20T08:26:29;31.70;;;3.50;;
18610;SDS011;9435;52.122;5.502;2023-12-20T08:28:56;20.17;;;3.22;;
18610;SDS011;9435;52.122;5.502;2023-12-20T08:31:23;20.48;;;3.20;;
18610;SDS011;9435;52.122;5.502;2023-12-20T08:33:51;23.92;;;3.33;;
18610;SDS011;9435;52.122;5.502;2023-12-20T08:36:19;21.35;;;3.40;;
18610;SDS011;9435;52.122;5.502;2023-12-20T08:38:46;21.95;;;3.35;;
18610;SDS011;9435;52.122;5.502;2023-12-20T08:41:15;22.42;;;3.20;;
18610;SDS011;9435;52.122;5.502;2023-12-20T08:43:42;19.67;;;2.88;;
18610;SDS011;9435;52.122;5.502;2023-12-20T08:46:09;26.98;;;3.42;;
18610;SDS011;9435;52.122;5.502;2023-12-20T08:48:36;28.45;;;3.28;;
18610;SDS011;9435;52.122;5.502;2023-12-20T08:51:03;25.25;;;3.45;;
18610;SDS011;9435;52.122;5.502;2023-12-20T08:53:32;27.83;;;3.50;;
18610;SDS011;9435;52.122;5.502;2023-12-20T08:55:59;24.08;;;3.13;;
18610;SDS011;9435;52.122;5.502;2023-12-20T08:58:28;19.13;;;3.10;;
18610;SDS011;9435;52.122;5.502;2023-12-20T09:00:55;20.55;;;3.25;;
18610;SDS011;9435;52.122;5.502;2023-12-20T09:03:23;27.23;;;3.40;;
18610;SDS011;9435;52.122;5.502;2023-12-20T09:05:50;29.33;;;3.38;;
18610;SDS011;9435;52.122;5.502;2023-12-20T09:08:17;25.83;;;3.15;;
18610;SDS011;9435;52.122;5.502;2023-12-20T09:10:44;25.27;;;3.42;;
18610;SDS011;9435;52.122;5.502;2023-12-20T09:13:11;29.20;;;3.75;;
18610;SDS011;9435;52.122;5.502;2023-12-20T09:15:40;28.10;;;3.50;;
18610;SDS011;9435;52.122;5.502;2023-12-20T09:18:07;27.00;;;3.40;;
18610;SDS011;9435;52.122;5.502;2023-12-20T09:20:34;24.05;;;3.15;;
18610;SDS011;9435;52.122;5.502;2023-12-20T09:23:01;26.50;;;3.45;;
18610;SDS011;9435;52.122;5.502;2023-12-20T09:25:29;27.08;;;3.45;;
18610;SDS011;9435;52.122;5.502;2023-12-20T09:27:56;25.00;;;3.47;;
18610;SDS011;9435;52.122;5.502;2023-12-20T09:30:23;30.65;;;3.60;;
18610;SDS011;9435;52.122;5.502;2023-12-20T09:32:51;22.27;;;3.25;;
18610;SDS011;9435;52.122;5.502;2023-12-20T09:35:18;25.80;;;3.13;;
18610;SDS011;9435;52.122;5.502;2023-12-20T09:37:46;25.17;;;3.30;;
18610;SDS011;9435;52.122;5.502;2023-12-20T09:40:13;20.27;;;2.97;;
18610;SDS011;9435;52.122;5.502;2023-12-20T09:42:42;26.85;;;3.47;;
18610;SDS011;9435;52.122;5.502;2023-12-20T09:45:23;19.15;;;2.90;;
18610;SDS011;9435;52.122;5.502;2023-12-20T09:47:52;22.23;;;3.22;;
18610;SDS011;9435;52.122;5.502;2023-12-20T09:50:21;29.05;;;3.45;;
18610;SDS011;9435;52.122;5.502;2023-12-20T09:52:49;19.52;;;3.17;;
18610;SDS011;9435;52.122;5.502;2023-12-20T09:55:17;26.13;;;3.20;;
18610;SDS011;9435;52.122;5.502;2023-12-20T09:57:45;33.25;;;3.83;;
18610;SDS011;9435;52.122;5.502;2023-12-20T10:00:13;22.65;;;3.13;;
18610;SDS011;9435;52.122;5.502;2023-12-20T10:02:42;23.10;;;2.90;;
18610;SDS011;9435;52.122;5.502;2023-12-20T10:05:17;21.77;;;3.35;;
18610;SDS011;9435;52.122;5.502;2023-12-20T10:07:45;24.13;;;3.05;;
18610;SDS011;9435;52.122;5.502;2023-12-20T10:10:13;22.77;;;2.97;;
18610;SDS011;9435;52.122;5.502;2023-12-20T10:12:41;24.52;;;3.03;;
18610;SDS011;9435;52.122;5.502;2023-12-20T10:15:28;26.63;;;3.38;;
18610;SDS011;9435;52.122;5.502;2023-12-20T10:17:56;22.27;;;3.35;;
18610;SDS011;9435;52.122;5.502;2023-12-20T10:20:25;19.73;;;2.75;;
18610;SDS011;9435;52.122;5.502;2023-12-20T10:22:54;26.27;;;3.35;;
18610;SDS011;9435;52.122;5.502;2023-12-20T10:25:21;22.80;;;3.00;;
18610;SDS011;9435;52.122;5.502;2023-12-20T10:27:49;22.25;;;3.13;;
18610;SDS011;9435;52.122;5.502;2023-12-20T10:30:16;19.35;;;3.00;;
18610;SDS011;9435;52.122;5.502;2023-12-20T10:32:43;20.25;;;2.92;;
18610;SDS011;9435;52.122;5.502;2023-12-20T10:35:11;19.90;;;2.67;;
18610;SDS011;9435;52.122;5.502;2023-12-20T10:37:39;22.60;;;2.97;;
18610;SDS011;9435;52.122;5.502;2023-12-20T10:40:07;15.57;;;2.42;;
18610;SDS011;9435;52.122;5.502;2023-12-20T10:42:35;19.52;;;2.75;;
18610;SDS011;9435;52.122;5.502;2023-12-20T10:45:03;18.88;;;2.92;;
18610;SDS011;9435;52.122;5.502;2023-12-20T10:47:31;18.85;;;2.80;;
18610;SDS011;9435;52.122;5.502;2023-12-20T10:49:59;25.00;;;2.92;;
18610;SDS011;9435;52.122;5.502;2023-12-20T10:52:27;17.85;;;2.75;;
18610;SDS011;9435;52.122;5.502;2023-12-20T10:54:57;20.17;;;2.80;;
18610;SDS011;9435;52.122;5.502;2023-12-20T10:57:24;23.40;;;3.05;;
18610;SDS011;9435;52.122;5.502;2023-12-20T10:59:54;19.58;;;2.97;;
18610;SDS011;9435;52.122;5.502;2023-12-20T11:02:22;16.35;;;2.88;;
18610;SDS011;9435;52.122;5.502;2023-12-20T11:04:52;19.90;;;2.28;;
18610;SDS011;9435;52.122;5.502;2023-12-20T11:07:23;19.08;;;2.78;;
18610;SDS011;9435;52.122;5.502;2023-12-20T11:10:01;18.00;;;2.70;;
18610;SDS011;9435;52.122;5.502;2023-12-20T11:12:37;18.50;;;2.80;;
18610;SDS011;9435;52.122;5.502;2023-12-20T11:15:10;15.02;;;2.58;;
18610;SDS011;9435;52.122;5.502;2023-12-20T11:17:38;15.77;;;2.42;;
18610;SDS011;9435;52.122;5.502;2023-12-20T11:20:07;23.40;;;3.33;;
18610;SDS011;9435;52.122;5.502;2023-12-20T11:22:37;25.52;;;2.45;;
18610;SDS011;9435;52.122;5.502;2023-12-20T11:25:09;20.77;;;2.75;;
18610;SDS011;9435;52.122;5.502;2023-12-20T11:27:39;17.10;;;2.55;;
18610;SDS011;9435;52.122;5.502;2023-12-20T11:30:09;23.48;;;2.85;;
18610;SDS011;9435;52.122;5.502;2023-12-20T11:32:37;19.55;;;2.55;;
18610;SDS011;9435;52.122;5.502;2023-12-20T11:35:19;18.73;;;2.70;;
18610;SDS011;9435;52.122;5.502;2023-12-20T11:37:48;16.58;;;2.47;;
18610;SDS011;9435;52.122;5.502;2023-12-20T11:40:17;19.80;;;3.20;;
18610;SDS011;9435;52.122;5.502;2023-12-20T11:42:48;22.75;;;3.05;;
18610;SDS011;9435;52.122;5.502;2023-12-20T11:45:17;23.70;;;2.72;;
18610;SDS011;9435;52.122;5.502;2023-12-20T11:47:47;13.15;;;2.35;;
18610;SDS011;9435;52.122;5.502;2023-12-20T11:50:16;19.17;;;2.58;;
18610;SDS011;9435;52.122;5.502;2023-12-20T11:52:43;22.15;;;3.00;;
18610;SDS011;9435;52.122;5.502;2023-12-20T11:55:10;19.20;;;2.80;;
18610;SDS011;9435;52.122;5.502;2023-12-20T11:57:39;15.45;;;2.30;;
18610;SDS011;9435;52.122;5.502;2023-12-20T12:00:06;15.00;;;2.22;;
18610;SDS011;9435;52.122;5.502;2023-12-20T12:02:34;17.85;;;3.00;;
18610;SDS011;9435;52.122;5.502;2023-12-20T12:05:01;12.85;;;2.33;;
18610;SDS011;9435;52.122;5.502;2023-12-20T12:07:30;15.70;;;2.30;;
18610;SDS011;9435;52.122;5.502;2023-12-20T12:09:57;21.25;;;2.55;;
18610;SDS011;9435;52.122;5.502;2023-12-20T12:12:24;16.17;;;2.63;;
18610;SDS011;9435;52.122;5.502;2023-12-20T12:14:54;21.65;;;3.10;;
18610;SDS011;9435;52.122;5.502;2023-12-20T12:17:22;17.45;;;2.20;;
18610;SDS011;9435;52.122;5.502;2023-12-20T12:19:49;11.60;;;2.17;;
18610;SDS011;9435;52.122;5.502;2023-12-20T12:22:16;10.98;;;1.88;;
18610;SDS011;9435;52.122;5.502;2023-12-20T12:24:45;17.65;;;2.25;;
18610;SDS011;9435;52.122;5.502;2023-12-20T12:27:13;21.05;;;2.67;;
18610;SDS011;9435;52.122;5.502;2023-12-20T12:29:41;20.17;;;2.50;;
18610;SDS011;9435;52.122;5.502;2023-12-20T12:32:27;17.05;;;2.22;;
18610;SDS011;9435;52.122;5.502;2023-12-20T12:34:54;15.50;;;2.53;;
18610;SDS011;9435;52.122;5.502;2023-12-20T12:37:22;16.33;;;2.08;;
18610;SDS011;9435;52.122;5.502;2023-12-20T12:39:50;16.70;;;2.47;;
18610;SDS011;9435;52.122;5.502;2023-12-20T12:42:19;17.25;;;2.25;;
18610;SDS011;9435;52.122;5.502;2023-12-20T12:44:47;16.67;;;2.60;;
18610;SDS011;9435;52.122;5.502;2023-12-20T12:47:14;16.08;;;2.25;;
18610;SDS011;9435;52.122;5.502;2023-12-20T12:49:42;17.13;;;2.42;;
18610;SDS011;9435;52.122;5.502;2023-12-20T12:52:10;19.13;;;2.50;;
18610;SDS011;9435;52.122;5.502;2023-12-20T12:54:37;15.48;;;2.40;;
18610;SDS011;9435;52.122;5.502;2023-12-20T12:57:04;21.58;;;2.55;;
18610;SDS011;9435;52.122;5.502;2023-12-20T12:59:31;20.33;;;2.63;;
18610;SDS011;9435;52.122;5.502;2023-12-20T13:01:57;15.30;;;2.22;;
18610;SDS011;9435;52.122;5.502;2023-12-20T13:04:24;17.65;;;2.10;;
18610;SDS011;9435;52.122;5.502;2023-12-20T13:06:53;15.98;;;2.40;;
18610;SDS011;9435;52.122;5.502;2023-12-20T13:09:20;18.60;;;2.22;;
18610;SDS011;9435;52.122;5.502;2023-12-20T13:11:47;19.17;;;2.30;;
18610;SDS011;9435;52.122;5.502;2023-12-20T13:14:15;22.45;;;2.35;;
18610;SDS011;9435;52.122;5.502;2023-12-20T13:16:42;15.57;;;2.20;;
18610;SDS011;9435;52.122;5.502;2023-12-20T13:19:10;11.75;;;1.90;;
18610;SDS011;9435;52.122;5.502;2023-12-20T13:21:37;17.95;;;2.20;;
18610;SDS011;9435;52.122;5.502;2023-12-20T13:24:07;20.63;;;2.20;;
18610;SDS011;9435;52.122;5.502;2023-12-20T13:26:34;13.00;;;2.10;;
18610;SDS011;9435;52.122;5.502;2023-12-20T13:29:01;18.08;;;2.30;;
18610;SDS011;9435;52.122;5.502;2023-12-20T13:31:28;17.90;;;2.50;;
18610;SDS011;9435;52.122;5.502;2023-12-20T13:33:56;18.88;;;2.00;;
18610;SDS011;9435;52.122;5.502;2023-12-20T13:36:23;17.77;;;2.20;;
18610;SDS011;9435;52.122;5.502;2023-12-20T13:38:50;13.95;;;2.35;;
18610;SDS011;9435;52.122;5.502;2023-12-20T13:41:19;15.35;;;2.38;;
18610;SDS011;9435;52.122;5.502;2023-12-20T13:43:46;17.38;;;2.53;;
18610;SDS011;9435;52.122;5.502;2023-12-20T13:46:14;15.15;;;2.15;;
18610;SDS011;9435;52.122;5.502;2023-12-20T13:48:42;19.58;;;2.33;;
18610;SDS011;9435;52.122;5.502;2023-12-20T13:51:10;11.77;;;2.38;;
18610;SDS011;9435;52.122;5.502;2023-12-20T13:53:37;15.80;;;1.98;;
18610;SDS011;9435;52.122;5.502;2023-12-20T13:56:04;15.48;;;2.25;;
18610;SDS011;9435;52.122;5.502;2023-12-20T13:58:34;16.50;;;2.55;;
18610;SDS011;9435;52.122;5.502;2023-12-20T14:01:01;14.23;;;2.17;;
18610;SDS011;9435;52.122;5.502;2023-12-20T14:03:27;13.45;;;2.28;;
18610;SDS011;9435;52.122;5.502;2023-12-20T14:05:55;16.90;;;2.03;;
18610;SDS011;9435;52.122;5.502;2023-12-20T14:08:22;16.77;;;2.30;;
18610;SDS011;9435;52.122;5.502;2023-12-20T14:10:50;15.43;;;2.13;;
18610;SDS011;9435;52.122;5.502;2023-12-20T14:13:17;17.40;;;2.65;;
18610;SDS011;9435;52.122;5.502;2023-12-20T14:15:47;15.25;;;2.00;;
18610;SDS011;9435;52.122;5.502;2023-12-20T14:18:14;16.15;;;2.17;;
18610;SDS011;9435;52.122;5.502;2023-12-20T14:20:42;18.02;;;2.30;;
18610;SDS011;9435;52.122;5.502;2023-12-20T14:23:09;14.85;;;2.25;;
18610;SDS011;9435;52.122;5.502;2023-12-20T14:25:36;19.73;;;2.45;;
18610;SDS011;9435;52.122;5.502;2023-12-20T14:28:04;13.20;;;2.08;;
18610;SDS011;9435;52.122;5.502;2023-12-20T14:30:31;17.58;;;2.47;;
18610;SDS011;9435;52.122;5.502;2023-12-20T14:33:00;13.60;;;2.17;;
18610;SDS011;9435;52.122;5.502;2023-12-20T14:35:27;18.63;;;2.30;;
18610;SDS011;9435;52.122;5.502;2023-12-20T14:37:54;19.27;;;1.90;;
18610;SDS011;9435;52.122;5.502;2023-12-20T14:40:22;13.98;;;1.90;;
18610;SDS011;9435;52.122;5.502;2023-12-20T14:42:49;17.35;;;2.33;;
18610;SDS011;9435;52.122;5.502;2023-12-20T14:45:16;15.98;;;2.13;;
18610;SDS011;9435;52.122;5.502;2023-12-20T14:47:44;16.70;;;1.83;;
18610;SDS011;9435;52.122;5.502;2023-12-20T14:50:14;14.98;;;2.40;;
18610;SDS011;9435;52.122;5.502;2023-12-20T14:52:43;18.33;;;2.17;;